KE4SXD Weather Reports


Display with metric or nautical units.
time (UTC)temp
F
wind
direction
speed
MPH
gust
MPH
rain 1hr
in
rain 24hr
in
rain mn
in
humidity
%
barometer
mb
20210923001207 63 52 5.0 9.0 0.00 0.00 0.09 73 1008.5
20210923000708 63 46 3.0 3.0 0.00 0.00 0.09 74 1008.4
20210923000207 64 59 1.0 2.0 0.00 0.00 0.09 74 1008.2
20210922235709 64 12 4.0 6.0 0.00 0.00 0.09 72 1008.4
20210922235207 64 26 4.0 5.0 0.00 0.00 0.09 73 1008.2
20210922234708 64 24 1.0 2.0 0.00 0.00 0.09 71 1008.0
20210922234207 65 302 2.0 3.0 0.00 0.00 0.09 72 1007.9
20210922233708 65 19 5.0 7.0 0.00 0.00 0.09 73 1008.1
20210922233208 65 14 8.0 11.0 0.00 0.00 0.09 71 1008.2
20210922232708 65 61 1.0 2.0 0.00 0.00 0.09 74 1008.0
20210922232207 66 32 0.0 0.0 0.00 0.00 0.09 70 1007.8
20210922231708 66 10 0.0 0.0 0.00 0.00 0.09 73 1007.9
20210922231208 67 45 2.0 3.0 0.00 0.00 0.09 72 1007.9
20210922230710 67 355 1.0 2.0 0.00 0.00 0.09 67 1007.9
20210922230208 67 309 4.0 5.0 0.00 0.00 0.09 65 1008.0
20210922225708 68 10 0.0 0.0 0.00 0.00 0.09 65 1007.8
20210922225206 68 41 1.0 2.0 0.00 0.00 0.09 63 1007.9
20210922224706 68 298 6.0 9.0 0.00 0.00 0.09 63 1007.8
20210922223711 70 5 1.0 3.0 0.00 0.00 0.09 64 1007.7
20210922223207 69 160 4.0 9.0 0.00 0.00 0.09 61 1007.6
20210922222709 69 305 1.0 2.0 0.00 0.00 0.09 63 1007.8
20210922222207 69 68 2.0 4.0 0.00 0.00 0.09 63 1007.7
20210922221715 70 282 4.0 5.0 0.00 0.00 0.09 64 1007.6
20210922221208 70 324 4.0 5.0 0.00 0.00 0.09 61 1007.4
20210922220714 70 342 2.0 3.0 0.00 0.00 0.09 63 1007.5
20210922220209 71 226 3.0 4.0 0.00 0.00 0.09 60 1007.5
20210922215710 70 292 3.0 3.0 0.00 0.00 0.09 61 1007.6
20210922215208 69 306 3.0 3.0 0.00 0.00 0.09 62 1007.5
20210922214709 70 27 1.0 2.0 0.00 0.00 0.09 59 1007.5
20210922214206 69 196 3.0 4.0 0.00 0.00 0.09 62 1007.7
20210922213708 69 274 3.0 3.0 0.00 0.00 0.09 63 1007.6
20210922213207 71 280 11.0 12.0 0.00 0.00 0.09 60 1007.3
20210922212710 72 261 4.0 4.0 0.00 0.00 0.09 59 1007.3
20210922212208 72 320 5.0 10.0 0.00 0.00 0.09 58 1007.4
20210922211710 72 287 4.0 5.0 0.00 0.00 0.09 60 1007.3
20210922211211 73 271 5.0 6.0 0.00 0.00 0.09 57 1007.5
20210922210709 72 328 4.0 6.0 0.00 0.00 0.09 62 1007.4
20210922210206 73 314 5.0 7.0 0.00 0.00 0.09 59 1007.5
20210922205706 72 286 4.0 4.0 0.00 0.00 0.09 61 1007.1
20210922205207 72 269 10.0 13.0 0.00 0.00 0.09 60 1007.5
20210922204710 72 258 6.0 10.0 0.00 0.00 0.09 61 1007.4
20210922204208 72 280 6.0 7.0 0.00 0.00 0.09 60 1007.2
20210922203205 71 273 6.0 7.0 0.00 0.00 0.09 58 1007.9
20210922202706 71 298 8.0 10.0 0.00 0.00 0.09 59 1007.7
20210922202206 71 7 1.0 2.0 0.00 0.00 0.09 61 1007.6
20210922201706 71 265 3.0 4.0 0.00 0.00 0.09 60 1007.7
20210922201206 71 285 3.0 7.0 0.00 0.00 0.09 62 1007.4
20210922200706 70 219 5.0 7.0 0.00 0.00 0.09 65 1007.9
20210922200209 68 263 3.0 5.0 0.00 0.00 0.09 66 1007.8
20210922195706 69 337 4.0 6.0 0.00 0.00 0.09 64 1007.7
20210922195205 72 294 5.0 6.0 0.00 0.00 0.09 60 1007.8
20210922194706 71 304 9.0 11.0 0.00 0.00 0.09 62 1007.8
20210922194206 72 98 3.0 5.0 0.00 0.00 0.09 61 1007.6
20210922193706 71 17 1.0 2.0 0.00 0.00 0.09 64 1008.1
20210922193205 71 291 8.0 11.0 0.00 0.00 0.09 65 1007.8
20210922192706 72 205 1.0 2.0 0.00 0.00 0.09 61 1008.1
20210922192206 70 357 1.0 2.0 0.00 0.00 0.09 66 1007.9
20210922191706 72 332 3.0 4.0 0.00 0.00 0.09 67 1007.8
20210922191206 72 297 4.0 5.0 0.00 0.00 0.09 64 1007.8
20210922190706 72 305 4.0 5.0 0.00 0.00 0.09 63 1007.5
20210922190205 72 207 6.0 9.0 0.00 0.00 0.09 66 1007.5
20210922185706 71 319 8.0 11.0 0.00 0.00 0.09 65 1007.7
20210922185205 72 29 2.0 2.0 0.00 0.00 0.09 63 1007.7
20210922184706 72 306 3.0 3.0 0.00 0.00 0.09 69 1008.0
20210922184205 69 297 3.0 3.0 0.00 0.00 0.09 69 1007.9
20210922183706 69 293 3.0 5.0 0.00 0.00 0.09 68 1007.8
20210922183206 69 38 5.0 6.0 0.00 0.00 0.09 71 1007.8
20210922182706 69 2 2.0 4.0 0.00 0.00 0.09 71 1007.8
20210922182207 71 186 2.0 3.0 0.00 0.00 0.09 67 1007.9
20210922181706 70 18 1.0 2.0 0.00 0.00 0.09 70 1007.9
20210922181206 70 310 3.0 4.0 0.00 0.00 0.09 69 1008.0
20210922180706 70 331 3.0 4.0 0.00 0.00 0.09 67 1007.9
20210922180205 69 28 6.0 11.0 0.00 0.00 0.09 70 1008.0
20210922175706 72 297 4.0 5.0 0.00 0.00 0.09 65 1008.0
20210922175206 70 322 4.0 4.0 0.00 0.00 0.09 69 1008.0
20210922174705 69 332 5.0 6.0 0.00 0.00 0.09 72 1008.0
20210922174205 68 295 1.0 2.0 0.00 0.00 0.09 73 1007.8
20210922173705 68 23 2.0 3.0 0.00 0.00 0.09 77 1008.1
20210922173206 71 299 9.0 11.0 0.00 0.00 0.09 70 1008.1
20210922172705 71 293 4.0 5.0 0.00 0.00 0.09 66 1008.0
20210922172205 70 154 2.0 4.0 0.00 0.00 0.09 71 1008.2
20210922171706 70 284 3.0 4.0 0.00 0.00 0.09 71 1008.7
20210922171205 71 338 4.0 5.0 0.00 0.00 0.09 69 1008.3
20210922170705 69 301 3.0 4.0 0.00 0.00 0.09 74 1008.2
20210922170205 69 286 5.0 6.0 0.00 0.00 0.09 73 1008.3
20210922165706 67 245 6.0 9.0 0.00 0.00 0.09 76 1008.4
20210922165205 67 85 5.0 6.0 0.00 0.00 0.09 76 1008.4
20210922164706 68 293 7.0 7.0 0.00 0.00 0.09 75 1008.1
20210922164205 69 295 7.0 10.0 0.00 0.00 0.09 74 1008.3
20210922163705 69 284 6.0 6.0 0.00 0.00 0.09 74 1008.4
20210922163205 68 316 3.0 4.0 0.00 0.00 0.09 76 1008.5
20210922162705 68 292 4.0 6.0 0.00 0.00 0.09 76 1008.5
20210922162205 68 300 5.0 6.0 0.00 0.00 0.09 76 1008.5
20210922161706 68 357 1.0 2.0 0.00 0.00 0.09 80 1008.5
20210922161205 68 248 8.0 12.0 0.00 0.00 0.09 78 1008.6
20210922160705 68 359 1.0 2.0 0.00 0.00 0.09 82 1008.6
20210922160205 69 319 3.0 3.0 0.00 0.00 0.09 78 1008.7
20210922155705 66 23 1.0 2.0 0.00 0.00 0.09 82 1008.6
20210922155205 66 50 4.0 4.0 0.00 0.00 0.09 84 1008.6
20210922154706 67 39 4.0 9.0 0.00 0.00 0.09 83 1008.6
20210922154206 68 312 4.0 5.0 0.00 0.00 0.09 79 1008.5
20210922153705 68 26 2.0 4.0 0.00 0.00 0.09 80 1008.7
20210922153205 66 46 1.0 2.0 0.00 0.00 0.09 87 1008.5
20210922152706 65 26 1.0 3.0 0.00 0.00 0.09 87 1008.4
20210922152205 65 11 6.0 9.0 0.00 0.00 0.09 89 1008.4
20210922151706 65 30 0.0 0.0 0.00 0.00 0.09 90 1008.4
20210922151205 65 52 1.0 2.0 0.00 0.00 0.09 90 1008.2
20210922150705 65 13 3.0 4.0 0.00 0.00 0.09 91 1008.0
20210922150205 65 346 3.0 4.0 0.00 0.00 0.09 90 1008.2
20210922145705 65 70 2.0 3.0 0.00 0.00 0.09 89 1008.3
20210922145205 65 49 3.0 5.0 0.00 0.00 0.09 90 1008.2
20210922144705 64 357 1.0 2.0 0.00 0.00 0.09 93 1008.2
20210922144205 63 324 2.0 3.0 0.00 0.00 0.09 95 1008.3
20210922143705 62 16 0.0 0.0 0.00 0.00 0.09 95 1008.4
20210922143205 62 337 2.0 3.0 0.00 0.00 0.09 95 1008.5
20210922142705 62 34 3.0 4.0 0.00 0.00 0.09 95 1008.6
20210922142205 62 19 4.0 5.0 0.00 0.00 0.09 95 1008.1
20210922141705 63 16 4.0 5.0 0.00 0.00 0.09 96 1008.2
20210922141205 62 14 4.0 5.0 0.00 0.00 0.09 96 1007.8
20210922140705 62 17 4.0 5.0 0.00 0.00 0.09 96 1008.2
20210922140205 62 32 1.0 2.0 0.00 0.00 0.09 97 1008.2
20210922135705 62 65 1.0 3.0 0.00 0.00 0.09 97 1008.7
20210922135205 62 23 0.0 0.0 0.00 0.00 0.09 97 1008.6
20210922134705 62 31 0.0 0.0 0.00 0.00 0.09 96 1008.8
20210922134206 62 18 0.0 0.0 0.04 0.00 0.09 96 1009.1
20210922133705 62 66 6.0 10.0 0.23 0.00 0.09 97 1009.0
20210922133205 62 347 1.0 2.0 0.18 0.00 0.09 96 1009.0
20210922132705 63 42 4.0 6.0 0.11 0.00 0.07 95 1008.8
20210922132205 64 42 6.0 7.0 0.00 0.00 0.05 95 1008.3
20210922131705 64 82 2.0 3.0 0.00 0.00 0.05 96 1008.4
20210922131205 64 33 3.0 4.0 0.00 0.00 0.05 96 1008.3
20210922130705 65 3 3.0 4.0 0.00 0.00 0.05 95 1007.9
20210922130205 64 18 1.0 2.0 0.00 0.00 0.05 96 1008.0
20210922125705 65 287 2.0 3.0 0.00 0.00 0.05 97 1007.6
20210922125205 65 350 1.0 2.0 0.04 0.00 0.05 97 1007.8
20210922124705 66 23 3.0 5.0 0.04 0.00 0.05 97 1007.7
20210922124204 66 2 0.0 0.0 0.00 0.00 0.05 97 1007.6
20210922123705 66 330 1.0 2.0 0.14 0.00 0.05 97 1007.2
20210922123205 67 306 2.0 3.0 0.14 0.00 0.05 97 1007.3
20210922122705 67 297 2.0 3.0 0.07 0.00 0.03 96 1007.1
20210922122205 68 206 3.0 6.0 0.00 0.00 0.02 96 1007.0
20210922121705 69 1 2.0 3.0 0.00 0.00 0.02 96 1006.7
20210922121205 70 318 4.0 5.0 0.00 0.00 0.02 97 1006.6
20210922120705 70 259 2.0 4.0 0.00 0.00 0.02 97 1006.4
20210922120205 71 333 2.0 3.0 0.00 0.00 0.02 97 1006.0
20210922115705 71 358 2.0 3.0 0.00 0.00 0.02 97 1006.0
20210922115205 71 355 1.0 2.0 0.00 0.00 0.02 97 1006.1
20210922114705 71 349 1.0 2.0 0.00 0.00 0.02 97 1005.8
20210922114205 72 334 2.0 3.0 0.16 0.00 0.02 97 1005.8
20210922113705 72 323 1.0 2.0 0.16 0.00 0.02 97 1005.6
20210922113205 72 344 3.0 4.0 0.04 0.00 0.00 97 1005.4
20210922112705 72 49 1.0 2.0 0.00 0.00 0.00 97 1005.6
20210922112204 72 347 1.0 2.0 0.00 0.00 0.00 97 1005.4
20210922111705 72 35 1.0 2.0 0.00 0.00 0.00 97 1005.7
20210922111204 72 74 3.0 4.0 0.00 0.00 0.00 97 1005.4
20210922110704 72 3 2.0 3.0 0.00 0.00 0.00 97 1005.5
20210922110204 72 320 2.0 3.0 0.00 0.00 0.00 97 1005.6
20210922105705 72 38 0.0 0.0 0.00 0.00 0.00 97 1005.2
20210922105205 72 186 2.0 3.0 0.00 0.00 0.00 97 1005.5
20210922104705 72 354 0.0 0.0 0.00 0.00 0.00 97 1005.4
20210922104204 72 175 3.0 3.0 0.00 0.00 0.00 97 1005.4
20210922103705 72 345 2.0 2.0 0.00 0.00 0.00 97 1005.3
20210922103205 72 359 1.0 2.0 0.00 0.00 0.00 97 1005.5
20210922102704 72 148 2.0 4.0 0.00 0.00 0.00 97 1005.4
20210922102204 72 354 0.0 0.0 0.00 0.00 0.00 97 1005.6
20210922101705 72 46 0.0 0.0 0.00 0.00 0.00 97 1005.5
20210922101204 72 103 1.0 3.0 0.00 0.00 0.00 97 1005.6
20210922100704 71 346 1.0 2.0 0.00 0.00 0.00 97 1005.6
20210922100204 71 94 1.0 2.0 0.00 0.00 0.00 97 1005.5
20210922095704 72 50 1.0 2.0 0.00 0.00 0.00 97 1005.6
20210922095205 71 157 2.0 3.0 0.00 0.00 0.00 97 1005.6
20210922094705 71 166 2.0 3.0 0.00 0.00 0.00 97 1005.6
20210922094204 71 113 1.0 3.0 0.00 0.00 0.00 97 1005.7
20210922093704 71 97 2.0 3.0 0.00 0.00 0.00 97 1005.4
20210922093204 71 116 2.0 4.0 0.00 0.00 0.00 97 1005.5
20210922092704 71 123 3.0 4.0 0.00 0.00 0.00 97 1005.5
20210922092205 71 121 6.0 6.0 0.00 0.00 0.00 97 1005.6
20210922091704 71 106 4.0 5.0 0.00 0.00 0.00 97 1005.7
20210922091204 71 108 3.0 4.0 0.00 0.00 0.00 97 1005.7
20210922090704 71 166 4.0 4.0 0.00 0.00 0.00 97 1005.7
20210922090204 71 174 4.0 5.0 0.00 0.00 0.00 97 1005.8
20210922085704 71 162 2.0 3.0 0.00 0.00 0.00 97 1005.7
20210922085204 71 130 3.0 4.0 0.00 0.00 0.00 97 1005.9
20210922084705 71 113 3.0 3.0 0.00 0.00 0.00 97 1005.8
20210922084204 71 157 5.0 6.0 0.00 0.00 0.00 97 1006.1
20210922083704 71 148 3.0 4.0 0.00 0.00 0.00 97 1006.0
20210922083204 71 108 3.0 3.0 0.00 0.00 0.00 97 1006.0
20210922082704 71 163 4.0 4.0 0.00 0.00 0.00 97 1006.0
20210922082204 71 176 4.0 7.0 0.00 0.00 0.00 97 1006.2
20210922081705 71 162 5.0 6.0 0.00 0.00 0.00 97 1006.2
20210922081204 71 172 5.0 7.0 0.00 0.00 0.00 97 1006.3
20210922080705 71 165 5.0 6.0 0.00 0.00 0.00 97 1006.4
20210922080204 71 140 4.0 4.0 0.00 0.00 0.00 97 1006.5
20210922075704 71 184 5.0 7.0 0.00 0.00 0.00 97 1006.4
20210922075204 71 98 2.0 3.0 0.00 0.00 0.00 97 1006.5
20210922074704 71 54 2.0 2.0 0.00 0.00 0.00 97 1006.7
20210922074204 71 159 4.0 5.0 0.00 0.00 0.00 97 1006.6
20210922073704 71 155 3.0 4.0 0.00 0.00 0.00 97 1006.9
20210922073204 71 166 3.0 5.0 0.00 0.00 0.00 97 1006.7
20210922072704 71 143 4.0 5.0 0.00 0.00 0.00 97 1007.1
20210922072204 71 124 3.0 4.0 0.00 0.00 0.00 97 1006.8
20210922071704 71 122 3.0 5.0 0.00 0.00 0.00 97 1007.1
20210922071203 71 91 2.0 3.0 0.00 0.00 0.00 97 1007.0
20210922070705 71 172 4.0 5.0 0.00 0.00 0.00 97 1007.1
20210922070206 71 159 3.0 3.0 0.00 0.00 0.00 97 1007.0
20210922065706 71 68 3.0 4.0 0.00 0.00 0.00 97 1007.2
20210922065206 71 168 4.0 5.0 0.00 0.00 0.00 97 1007.0
20210922064707 71 175 4.0 5.0 0.00 0.00 0.00 97 1007.1
20210922064206 71 108 2.0 3.0 0.00 0.00 0.00 97 1007.1
20210922063706 71 82 2.0 3.0 0.00 0.00 0.00 97 1007.1
20210922063206 71 119 2.0 3.0 0.00 0.00 0.00 97 1007.4
20210922062707 71 167 3.0 4.0 0.00 0.00 0.00 97 1007.5
20210922062206 72 28 0.0 0.0 0.00 0.00 0.00 97 1007.3
20210922061706 72 345 1.0 2.0 0.00 0.00 0.00 97 1007.6
20210922061205 72 22 0.0 0.0 0.00 0.00 0.00 97 1007.3
20210922060706 72 57 0.0 0.0 0.00 0.00 0.00 97 1007.6
20210922060206 72 45 0.0 0.0 0.00 0.00 0.00 97 1007.6
20210922055706 72 6 1.0 2.0 0.00 0.00 0.00 97 1007.7
20210922055207 72 351 2.0 3.0 0.00 0.00 0.00 97 1007.7
20210922054707 72 30 1.0 3.0 0.00 0.00 0.00 97 1007.7
20210922054206 72 351 1.0 2.0 0.00 0.00 0.00 97 1007.7
20210922053709 72 30 0.0 0.0 0.00 0.00 0.00 97 1007.7
20210922053207 72 37 0.0 0.0 0.00 0.00 0.00 97 1007.6
20210922052709 72 41 1.0 2.0 0.00 0.00 0.00 97 1007.8
20210922052209 72 182 4.0 5.0 0.00 0.00 0.00 97 1008.1